sensor_id;sensor_type;location;lat;lon;timestamp;temperature;humidity
18043;DHT22;9146;48.074;11.968;2024-01-27T00:01:09;0.60;99.90
18043;DHT22;9146;48.074;11.968;2024-01-27T00:03:36;0.50;99.90
18043;DHT22;9146;48.074;11.968;2024-01-27T00:06:05;0.50;99.90
18043;DHT22;9146;48.074;11.968;2024-01-27T00:08:32;0.40;99.90
18043;DHT22;9146;48.074;11.968;2024-01-27T00:10:59;0.30;99.90
18043;DHT22;9146;48.074;11.968;2024-01-27T00:13:25;0.20;99.90
18043;DHT22;9146;48.074;11.968;2024-01-27T00:15:52;0.10;99.90
18043;DHT22;9146;48.074;11.968;2024-01-27T00:18:20;0.00;99.90
18043;DHT22;9146;48.074;11.968;2024-01-27T00:20:47;0.00;99.90
18043;DHT22;9146;48.074;11.968;2024-01-27T00:23:15;0.00;99.90
18043;DHT22;9146;48.074;11.968;2024-01-27T00:25:42;-0.10;99.90
18043;DHT22;9146;48.074;11.968;2024-01-27T00:28:09;-0.10;99.90
18043;DHT22;9146;48.074;11.968;2024-01-27T00:30:36;-0.10;99.90
18043;DHT22;9146;48.074;11.968;2024-01-27T00:33:03;-0.20;99.90
18043;DHT22;9146;48.074;11.968;2024-01-27T00:35:30;-0.20;99.90
18043;DHT22;9146;48.074;11.968;2024-01-27T00:37:57;-0.30;99.90
18043;DHT22;9146;48.074;11.968;2024-01-27T00:40:26;-0.30;99.90
18043;DHT22;9146;48.074;11.968;2024-01-27T00:42:52;-0.30;99.90
18043;DHT22;9146;48.074;11.968;2024-01-27T00:45:20;-0.40;99.90
18043;DHT22;9146;48.074;11.968;2024-01-27T00:47:49;-0.40;99.90
18043;DHT22;9146;48.074;11.968;2024-01-27T00:50:16;-0.40;99.90
18043;DHT22;9146;48.074;11.968;2024-01-27T00:52:43;-0.40;99.90
18043;DHT22;9146;48.074;11.968;2024-01-27T00:55:10;-0.40;99.90
18043;DHT22;9146;48.074;11.968;2024-01-27T00:57:38;-0.40;99.90
18043;DHT22;9146;48.074;11.968;2024-01-27T01:00:06;-0.40;99.90
18043;DHT22;9146;48.074;11.968;2024-01-27T01:02:34;-0.50;99.90
18043;DHT22;9146;48.074;11.968;2024-01-27T01:05:01;-0.50;99.90
18043;DHT22;9146;48.074;11.968;2024-01-27T01:07:29;-0.60;99.90
18043;DHT22;9146;48.074;11.968;2024-01-27T01:09:56;-0.60;99.90
18043;DHT22;9146;48.074;11.968;2024-01-27T01:12:23;-0.70;99.90
18043;DHT22;9146;48.074;11.968;2024-01-27T01:14:52;-0.70;99.90
18043;DHT22;9146;48.074;11.968;2024-01-27T01:17:19;-0.60;99.90
18043;DHT22;9146;48.074;11.968;2024-01-27T01:19:46;-0.60;99.90
18043;DHT22;9146;48.074;11.968;2024-01-27T01:22:13;-0.60;99.90
18043;DHT22;9146;48.074;11.968;2024-01-27T01:24:40;-0.50;99.90
18043;DHT22;9146;48.074;11.968;2024-01-27T01:27:07;-0.50;99.90
18043;DHT22;9146;48.074;11.968;2024-01-27T01:29:33;-0.50;99.90
18043;DHT22;9146;48.074;11.968;2024-01-27T01:32:04;-0.50;99.90
18043;DHT22;9146;48.074;11.968;2024-01-27T01:34:31;-0.50;99.90
18043;DHT22;9146;48.074;11.968;2024-01-27T01:36:59;-0.50;99.90
18043;DHT22;9146;48.074;11.968;2024-01-27T01:39:27;-0.50;99.90
18043;DHT22;9146;48.074;11.968;2024-01-27T01:41:54;-0.50;99.90
18043;DHT22;9146;48.074;11.968;2024-01-27T01:44:21;-0.50;99.90
18043;DHT22;9146;48.074;11.968;2024-01-27T01:46:48;-0.50;99.90
18043;DHT22;9146;48.074;11.968;2024-01-27T01:49:16;-0.50;99.90
18043;DHT22;9146;48.074;11.968;2024-01-27T01:51:44;-0.50;99.90
18043;DHT22;9146;48.074;11.968;2024-01-27T01:54:11;-0.50;99.90
18043;DHT22;9146;48.074;11.968;2024-01-27T01:56:39;-0.50;99.90
18043;DHT22;9146;48.074;11.968;2024-01-27T01:59:06;-0.50;99.90
18043;DHT22;9146;48.074;11.968;2024-01-27T02:01:32;-0.50;99.90
18043;DHT22;9146;48.074;11.968;2024-01-27T02:03:59;-0.50;99.90
18043;DHT22;9146;48.074;11.968;2024-01-27T02:06:28;-0.50;99.90
18043;DHT22;9146;48.074;11.968;2024-01-27T02:08:54;-0.50;99.90
18043;DHT22;9146;48.074;11.968;2024-01-27T02:11:21;-0.40;99.90
18043;DHT22;9146;48.074;11.968;2024-01-27T02:13:48;-0.40;99.90
18043;DHT22;9146;48.074;11.968;2024-01-27T02:16:15;-0.40;99.90
18043;DHT22;9146;48.074;11.968;2024-01-27T02:18:43;-0.40;99.90
18043;DHT22;9146;48.074;11.968;2024-01-27T02:21:10;-0.40;99.90
18043;DHT22;9146;48.074;11.968;2024-01-27T02:23:38;-0.40;99.90
18043;DHT22;9146;48.074;11.968;2024-01-27T02:26:07;-0.40;99.90
18043;DHT22;9146;48.074;11.968;2024-01-27T02:28:34;-0.30;99.90
18043;DHT22;9146;48.074;11.968;2024-01-27T02:31:01;-0.30;99.90
18043;DHT22;9146;48.074;11.968;2024-01-27T02:33:28;-0.30;99.90
18043;DHT22;9146;48.074;11.968;2024-01-27T02:35:55;-0.20;99.90
18043;DHT22;9146;48.074;11.968;2024-01-27T02:38:22;-0.10;99.90
18043;DHT22;9146;48.074;11.968;2024-01-27T02:40:49;-0.10;99.90
18043;DHT22;9146;48.074;11.968;2024-01-27T02:43:17;0.00;99.90
18043;DHT22;9146;48.074;11.968;2024-01-27T02:45:44;0.00;99.90
18043;DHT22;9146;48.074;11.968;2024-01-27T02:48:11;0.10;99.90
18043;DHT22;9146;48.074;11.968;2024-01-27T02:50:38;0.10;99.90
18043;DHT22;9146;48.074;11.968;2024-01-27T02:53:05;0.20;99.90
18043;DHT22;9146;48.074;11.968;2024-01-27T02:55:32;0.20;99.90
18043;DHT22;9146;48.074;11.968;2024-01-27T02:57:59;0.20;99.90
18043;DHT22;9146;48.074;11.968;2024-01-27T03:00:27;0.20;99.90
18043;DHT22;9146;48.074;11.968;2024-01-27T03:02:54;0.20;99.90
18043;DHT22;9146;48.074;11.968;2024-01-27T03:05:22;0.20;99.90
18043;DHT22;9146;48.074;11.968;2024-01-27T03:07:49;0.10;99.90
18043;DHT22;9146;48.074;11.968;2024-01-27T03:10:16;0.10;99.90
18043;DHT22;9146;48.074;11.968;2024-01-27T03:12:43;0.10;99.90
18043;DHT22;9146;48.074;11.968;2024-01-27T03:15:10;0.00;99.90
18043;DHT22;9146;48.074;11.968;2024-01-27T03:17:39;0.00;99.90
18043;DHT22;9146;48.074;11.968;2024-01-27T03:20:07;0.00;99.90
18043;DHT22;9146;48.074;11.968;2024-01-27T03:22:35;-0.10;99.90
18043;DHT22;9146;48.074;11.968;2024-01-27T03:25:02;-0.10;99.90
18043;DHT22;9146;48.074;11.968;2024-01-27T03:27:29;-0.10;99.90
18043;DHT22;9146;48.074;11.968;2024-01-27T03:29:59;-0.20;99.90
18043;DHT22;9146;48.074;11.968;2024-01-27T03:32:27;-0.20;99.90
18043;DHT22;9146;48.074;11.968;2024-01-27T03:34:55;-0.20;99.90
18043;DHT22;9146;48.074;11.968;2024-01-27T03:37:22;-0.30;99.90
18043;DHT22;9146;48.074;11.968;2024-01-27T03:39:49;-0.20;99.90
18043;DHT22;9146;48.074;11.968;2024-01-27T03:42:16;-0.30;99.90
18043;DHT22;9146;48.074;11.968;2024-01-27T03:44:43;-0.20;99.90
18043;DHT22;9146;48.074;11.968;2024-01-27T03:47:10;-0.20;99.90
18043;DHT22;9146;48.074;11.968;2024-01-27T03:49:37;-0.20;99.90
18043;DHT22;9146;48.074;11.968;2024-01-27T03:52:05;-0.20;99.90
18043;DHT22;9146;48.074;11.968;2024-01-27T03:54:32;-0.20;99.90
18043;DHT22;9146;48.074;11.968;2024-01-27T03:56:59;-0.20;99.90
18043;DHT22;9146;48.074;11.968;2024-01-27T03:59:26;-0.20;99.90
18043;DHT22;9146;48.074;11.968;2024-01-27T04:01:53;-0.20;99.90
18043;DHT22;9146;48.074;11.968;2024-01-27T04:04:20;-0.20;99.90
18043;DHT22;9146;48.074;11.968;2024-01-27T04:06:47;-0.20;99.90
18043;DHT22;9146;48.074;11.968;2024-01-27T04:09:15;-0.20;99.90
18043;DHT22;9146;48.074;11.968;2024-01-27T04:11:42;-0.20;99.90
18043;DHT22;9146;48.074;11.968;2024-01-27T04:14:09;-0.10;99.90
18043;DHT22;9146;48.074;11.968;2024-01-27T04:16:36;0.00;99.90
18043;DHT22;9146;48.074;11.968;2024-01-27T04:19:03;0.00;99.90
18043;DHT22;9146;48.074;11.968;2024-01-27T04:21:30;0.00;99.90
18043;DHT22;9146;48.074;11.968;2024-01-27T04:23:57;0.00;99.90
18043;DHT22;9146;48.074;11.968;2024-01-27T04:26:26;0.10;99.90
18043;DHT22;9146;48.074;11.968;2024-01-27T04:28:53;0.00;99.90
18043;DHT22;9146;48.074;11.968;2024-01-27T04:31:19;0.00;99.90
18043;DHT22;9146;48.074;11.968;2024-01-27T04:33:47;0.00;99.90
18043;DHT22;9146;48.074;11.968;2024-01-27T04:36:13;-0.10;99.90
18043;DHT22;9146;48.074;11.968;2024-01-27T04:38:43;-0.10;99.90
18043;DHT22;9146;48.074;11.968;2024-01-27T04:41:10;-0.10;99.90
18043;DHT22;9146;48.074;11.968;2024-01-27T04:43:39;-0.10;99.90
18043;DHT22;9146;48.074;11.968;2024-01-27T04:46:06;-0.10;99.90
18043;DHT22;9146;48.074;11.968;2024-01-27T04:48:33;-0.10;99.90
18043;DHT22;9146;48.074;11.968;2024-01-27T04:51:00;-0.20;99.90
18043;DHT22;9146;48.074;11.968;2024-01-27T04:53:27;-0.20;99.90
18043;DHT22;9146;48.074;11.968;2024-01-27T04:55:54;-0.20;99.90
18043;DHT22;9146;48.074;11.968;2024-01-27T04:58:21;-0.30;99.90
18043;DHT22;9146;48.074;11.968;2024-01-27T05:00:49;-0.30;99.90
18043;DHT22;9146;48.074;11.968;2024-01-27T05:03:16;-0.30;99.90
18043;DHT22;9146;48.074;11.968;2024-01-27T05:05:43;-0.30;99.90
18043;DHT22;9146;48.074;11.968;2024-01-27T05:08:10;-0.40;99.90
18043;DHT22;9146;48.074;11.968;2024-01-27T05:10:37;-0.40;99.90
18043;DHT22;9146;48.074;11.968;2024-01-27T05:13:04;-0.30;99.90
18043;DHT22;9146;48.074;11.968;2024-01-27T05:15:31;-0.30;99.90
18043;DHT22;9146;48.074;11.968;2024-01-27T05:17:59;-0.30;99.90
18043;DHT22;9146;48.074;11.968;2024-01-27T05:20:26;-0.30;99.90
18043;DHT22;9146;48.074;11.968;2024-01-27T05:22:53;-0.30;99.90
18043;DHT22;9146;48.074;11.968;2024-01-27T05:25:20;-0.30;99.90
18043;DHT22;9146;48.074;11.968;2024-01-27T05:27:48;-0.30;99.90
18043;DHT22;9146;48.074;11.968;2024-01-27T05:30:16;-0.40;99.90
18043;DHT22;9146;48.074;11.968;2024-01-27T05:32:43;-0.40;99.90
18043;DHT22;9146;48.074;11.968;2024-01-27T05:35:11;-0.50;99.90
18043;DHT22;9146;48.074;11.968;2024-01-27T05:37:38;-0.50;99.90
18043;DHT22;9146;48.074;11.968;2024-01-27T05:40:07;-0.60;99.90
18043;DHT22;9146;48.074;11.968;2024-01-27T05:42:34;-0.70;99.90
18043;DHT22;9146;48.074;11.968;2024-01-27T05:45:01;-0.80;99.90
18043;DHT22;9146;48.074;11.968;2024-01-27T05:47:28;-0.80;99.90
18043;DHT22;9146;48.074;11.968;2024-01-27T05:49:54;-0.80;99.90
18043;DHT22;9146;48.074;11.968;2024-01-27T05:52:23;-0.80;99.90
18043;DHT22;9146;48.074;11.968;2024-01-27T05:54:51;-0.90;99.90
18043;DHT22;9146;48.074;11.968;2024-01-27T05:57:18;-1.00;99.90
18043;DHT22;9146;48.074;11.968;2024-01-27T05:59:45;-1.00;99.90
18043;DHT22;9146;48.074;11.968;2024-01-27T06:02:12;-1.20;99.90
18043;DHT22;9146;48.074;11.968;2024-01-27T06:04:39;-1.20;99.90
18043;DHT22;9146;48.074;11.968;2024-01-27T06:07:06;-1.30;99.90
18043;DHT22;9146;48.074;11.968;2024-01-27T06:09:36;-1.40;99.90
18043;DHT22;9146;48.074;11.968;2024-01-27T06:12:04;-1.40;99.90
18043;DHT22;9146;48.074;11.968;2024-01-27T06:14:31;-1.40;99.90
18043;DHT22;9146;48.074;11.968;2024-01-27T06:16:58;-1.40;99.90
18043;DHT22;9146;48.074;11.968;2024-01-27T06:19:25;-1.40;99.90
18043;DHT22;9146;48.074;11.968;2024-01-27T06:21:52;-1.40;99.90
18043;DHT22;9146;48.074;11.968;2024-01-27T06:24:19;-1.40;99.90
18043;DHT22;9146;48.074;11.968;2024-01-27T06:26:48;-1.40;99.90
18043;DHT22;9146;48.074;11.968;2024-01-27T06:29:15;-1.40;99.90
18043;DHT22;9146;48.074;11.968;2024-01-27T06:31:42;-1.40;99.90
18043;DHT22;9146;48.074;11.968;2024-01-27T06:34:08;-1.40;99.90
18043;DHT22;9146;48.074;11.968;2024-01-27T06:36:35;-1.50;99.90
18043;DHT22;9146;48.074;11.968;2024-01-27T06:39:02;-1.50;99.90
18043;DHT22;9146;48.074;11.968;2024-01-27T06:41:29;-1.50;99.90
18043;DHT22;9146;48.074;11.968;2024-01-27T06:43:57;-1.50;99.90
18043;DHT22;9146;48.074;11.968;2024-01-27T06:46:24;-1.50;99.90
18043;DHT22;9146;48.074;11.968;2024-01-27T06:48:51;-1.50;99.90
18043;DHT22;9146;48.074;11.968;2024-01-27T06:51:18;-1.40;99.90
18043;DHT22;9146;48.074;11.968;2024-01-27T06:53:45;-1.40;99.90
18043;DHT22;9146;48.074;11.968;2024-01-27T06:56:13;-1.40;99.90
18043;DHT22;9146;48.074;11.968;2024-01-27T06:58:40;-1.40;99.90
18043;DHT22;9146;48.074;11.968;2024-01-27T07:01:09;-1.40;99.90
18043;DHT22;9146;48.074;11.968;2024-01-27T07:03:36;-1.30;99.90
18043;DHT22;9146;48.074;11.968;2024-01-27T07:06:05;-1.30;99.90
18043;DHT22;9146;48.074;11.968;2024-01-27T07:08:33;-1.30;99.90
18043;DHT22;9146;48.074;11.968;2024-01-27T07:10:59;-1.30;99.90
18043;DHT22;9146;48.074;11.968;2024-01-27T07:13:26;-1.20;99.90
18043;DHT22;9146;48.074;11.968;2024-01-27T07:15:55;-1.20;99.90
18043;DHT22;9146;48.074;11.968;2024-01-27T07:18:24;-1.20;99.90
18043;DHT22;9146;48.074;11.968;2024-01-27T07:20:51;-1.20;99.90
18043;DHT22;9146;48.074;11.968;2024-01-27T07:23:20;-1.10;99.90
18043;DHT22;9146;48.074;11.968;2024-01-27T07:25:47;-1.10;99.90
18043;DHT22;9146;48.074;11.968;2024-01-27T07:28:14;-1.00;99.90
18043;DHT22;9146;48.074;11.968;2024-01-27T07:30:41;-1.00;99.90
18043;DHT22;9146;48.074;11.968;2024-01-27T07:33:08;-0.90;99.90
18043;DHT22;9146;48.074;11.968;2024-01-27T07:35:36;-0.90;99.90
18043;DHT22;9146;48.074;11.968;2024-01-27T07:38:04;-0.80;99.90
18043;DHT22;9146;48.074;11.968;2024-01-27T07:40:30;-0.80;99.90
18043;DHT22;9146;48.074;11.968;2024-01-27T07:42:58;-0.70;99.90
18043;DHT22;9146;48.074;11.968;2024-01-27T07:45:25;-0.70;99.90
18043;DHT22;9146;48.074;11.968;2024-01-27T07:47:51;-0.60;99.90
18043;DHT22;9146;48.074;11.968;2024-01-27T07:50:18;-0.50;99.90
18043;DHT22;9146;48.074;11.968;2024-01-27T07:52:47;-0.40;99.90
18043;DHT22;9146;48.074;11.968;2024-01-27T07:55:14;-0.40;99.90
18043;DHT22;9146;48.074;11.968;2024-01-27T07:57:42;-0.30;99.90
18043;DHT22;9146;48.074;11.968;2024-01-27T08:00:10;-0.20;99.90
18043;DHT22;9146;48.074;11.968;2024-01-27T08:02:37;-0.10;99.90
18043;DHT22;9146;48.074;11.968;2024-01-27T08:05:04;0.00;99.90
18043;DHT22;9146;48.074;11.968;2024-01-27T08:07:31;0.00;99.90
18043;DHT22;9146;48.074;11.968;2024-01-27T08:10:00;0.10;99.90
18043;DHT22;9146;48.074;11.968;2024-01-27T08:12:26;0.10;99.90
18043;DHT22;9146;48.074;11.968;2024-01-27T08:14:53;0.20;99.90
18043;DHT22;9146;48.074;11.968;2024-01-27T08:17:21;0.30;99.90
18043;DHT22;9146;48.074;11.968;2024-01-27T08:19:48;0.30;99.90
18043;DHT22;9146;48.074;11.968;2024-01-27T08:22:15;0.40;99.90
18043;DHT22;9146;48.074;11.968;2024-01-27T08:24:42;0.50;99.90
18043;DHT22;9146;48.074;11.968;2024-01-27T08:27:10;0.50;99.90
18043;DHT22;9146;48.074;11.968;2024-01-27T08:29:37;0.60;99.90
18043;DHT22;9146;48.074;11.968;2024-01-27T08:32:05;0.60;99.90
18043;DHT22;9146;48.074;11.968;2024-01-27T08:34:32;0.70;99.90
18043;DHT22;9146;48.074;11.968;2024-01-27T08:37:01;0.80;99.90
18043;DHT22;9146;48.074;11.968;2024-01-27T08:39:28;0.90;99.90
18043;DHT22;9146;48.074;11.968;2024-01-27T08:41:55;0.90;99.90
18043;DHT22;9146;48.074;11.968;2024-01-27T08:44:24;1.00;99.90
18043;DHT22;9146;48.074;11.968;2024-01-27T08:46:51;1.10;99.90
18043;DHT22;9146;48.074;11.968;2024-01-27T08:49:18;1.20;99.90
18043;DHT22;9146;48.074;11.968;2024-01-27T08:51:45;1.20;99.90
18043;DHT22;9146;48.074;11.968;2024-01-27T08:54:11;1.30;99.90
18043;DHT22;9146;48.074;11.968;2024-01-27T08:56:39;1.30;99.90
18043;DHT22;9146;48.074;11.968;2024-01-27T08:59:07;1.40;99.90
18043;DHT22;9146;48.074;11.968;2024-01-27T09:01:35;1.50;99.90
18043;DHT22;9146;48.074;11.968;2024-01-27T09:04:02;1.50;99.90
18043;DHT22;9146;48.074;11.968;2024-01-27T09:06:29;1.50;99.90
18043;DHT22;9146;48.074;11.968;2024-01-27T09:08:56;1.60;99.90
18043;DHT22;9146;48.074;11.968;2024-01-27T09:11:23;1.60;99.90
18043;DHT22;9146;48.074;11.968;2024-01-27T09:13:52;1.60;99.90
18043;DHT22;9146;48.074;11.968;2024-01-27T09:16:19;1.70;99.90
18043;DHT22;9146;48.074;11.968;2024-01-27T09:18:48;1.70;99.90
18043;DHT22;9146;48.074;11.968;2024-01-27T09:21:16;1.70;99.90
18043;DHT22;9146;48.074;11.968;2024-01-27T09:23:46;1.80;99.90
18043;DHT22;9146;48.074;11.968;2024-01-27T09:26:13;1.70;99.90
18043;DHT22;9146;48.074;11.968;2024-01-27T09:28:40;1.80;99.90
18043;DHT22;9146;48.074;11.968;2024-01-27T09:31:09;1.80;99.90
18043;DHT22;9146;48.074;11.968;2024-01-27T09:33:37;1.80;99.90
18043;DHT22;9146;48.074;11.968;2024-01-27T09:36:06;1.90;99.90
18043;DHT22;9146;48.074;11.968;2024-01-27T09:38:33;1.90;99.90
18043;DHT22;9146;48.074;11.968;2024-01-27T09:41:00;2.00;99.90
18043;DHT22;9146;48.074;11.968;2024-01-27T09:43:28;2.00;99.90
18043;DHT22;9146;48.074;11.968;2024-01-27T09:45:56;2.10;99.90
18043;DHT22;9146;48.074;11.968;2024-01-27T09:48:23;2.10;99.90
18043;DHT22;9146;48.074;11.968;2024-01-27T09:50:51;2.10;99.90
18043;DHT22;9146;48.074;11.968;2024-01-27T09:53:20;2.10;99.90
18043;DHT22;9146;48.074;11.968;2024-01-27T09:55:47;2.10;99.90
18043;DHT22;9146;48.074;11.968;2024-01-27T09:58:14;2.20;99.90
18043;DHT22;9146;48.074;11.968;2024-01-27T10:00:42;2.30;99.90
18043;DHT22;9146;48.074;11.968;2024-01-27T10:03:09;2.30;99.90
18043;DHT22;9146;48.074;11.968;2024-01-27T10:05:37;2.30;99.90
18043;DHT22;9146;48.074;11.968;2024-01-27T10:08:06;2.30;99.90
18043;DHT22;9146;48.074;11.968;2024-01-27T10:10:35;2.40;99.90
18043;DHT22;9146;48.074;11.968;2024-01-27T10:13:04;2.40;99.90
18043;DHT22;9146;48.074;11.968;2024-01-27T10:15:31;2.40;99.90
18043;DHT22;9146;48.074;11.968;2024-01-27T10:18:08;2.50;99.90
18043;DHT22;9146;48.074;11.968;2024-01-27T10:20:40;2.50;99.90
18043;DHT22;9146;48.074;11.968;2024-01-27T10:23:11;2.50;99.90
18043;DHT22;9146;48.074;11.968;2024-01-27T10:25:39;2.50;99.90
18043;DHT22;9146;48.074;11.968;2024-01-27T10:28:07;2.50;99.90
18043;DHT22;9146;48.074;11.968;2024-01-27T10:30:34;2.50;99.90
18043;DHT22;9146;48.074;11.968;2024-01-27T10:33:01;2.50;99.90
18043;DHT22;9146;48.074;11.968;2024-01-27T10:35:29;2.50;99.90
18043;DHT22;9146;48.074;11.968;2024-01-27T10:37:56;2.60;99.90
18043;DHT22;9146;48.074;11.968;2024-01-27T10:40:23;2.60;99.90
18043;DHT22;9146;48.074;11.968;2024-01-27T10:43:02;2.60;99.90
18043;DHT22;9146;48.074;11.968;2024-01-27T10:45:34;2.60;99.90
18043;DHT22;9146;48.074;11.968;2024-01-27T10:48:02;2.60;99.90
18043;DHT22;9146;48.074;11.968;2024-01-27T10:50:33;2.60;99.90
18043;DHT22;9146;48.074;11.968;2024-01-27T10:53:03;2.60;99.90
18043;DHT22;9146;48.074;11.968;2024-01-27T10:55:32;2.60;99.90
18043;DHT22;9146;48.074;11.968;2024-01-27T10:58:02;2.60;99.90
18043;DHT22;9146;48.074;11.968;2024-01-27T11:00:29;2.70;99.90
18043;DHT22;9146;48.074;11.968;2024-01-27T11:02:59;2.70;99.90
18043;DHT22;9146;48.074;11.968;2024-01-27T11:05:27;2.80;99.90
18043;DHT22;9146;48.074;11.968;2024-01-27T11:07:55;2.80;99.90
18043;DHT22;9146;48.074;11.968;2024-01-27T11:10:23;2.80;99.90
18043;DHT22;9146;48.074;11.968;2024-01-27T11:12:51;2.80;99.90
18043;DHT22;9146;48.074;11.968;2024-01-27T11:15:22;2.80;99.90
18043;DHT22;9146;48.074;11.968;2024-01-27T11:17:48;2.90;99.90
18043;DHT22;9146;48.074;11.968;2024-01-27T11:20:16;2.90;99.90
18043;DHT22;9146;48.074;11.968;2024-01-27T11:22:46;3.00;99.90
18043;DHT22;9146;48.074;11.968;2024-01-27T11:25:17;3.00;99.90
18043;DHT22;9146;48.074;11.968;2024-01-27T11:27:45;3.10;99.90
18043;DHT22;9146;48.074;11.968;2024-01-27T11:30:27;3.20;99.90
18043;DHT22;9146;48.074;11.968;2024-01-27T11:32:55;3.20;99.90
18043;DHT22;9146;48.074;11.968;2024-01-27T11:35:22;3.30;99.90
18043;DHT22;9146;48.074;11.968;2024-01-27T11:37:50;3.30;99.90
18043;DHT22;9146;48.074;11.968;2024-01-27T11:40:17;3.40;99.90
18043;DHT22;9146;48.074;11.968;2024-01-27T11:42:44;3.50;99.90
18043;DHT22;9146;48.074;11.968;2024-01-27T11:45:20;3.50;99.90
18043;DHT22;9146;48.074;11.968;2024-01-27T11:47:48;3.60;99.90
18043;DHT22;9146;48.074;11.968;2024-01-27T11:50:17;3.60;99.90
18043;DHT22;9146;48.074;11.968;2024-01-27T11:52:44;3.50;99.90
18043;DHT22;9146;48.074;11.968;2024-01-27T11:55:11;3.50;99.90
18043;DHT22;9146;48.074;11.968;2024-01-27T11:57:38;3.50;99.90
18043;DHT22;9146;48.074;11.968;2024-01-27T12:00:07;3.50;99.90
18043;DHT22;9146;48.074;11.968;2024-01-27T12:02:35;3.50;99.90
18043;DHT22;9146;48.074;11.968;2024-01-27T12:05:04;3.50;99.90
18043;DHT22;9146;48.074;11.968;2024-01-27T12:07:31;3.50;99.90
18043;DHT22;9146;48.074;11.968;2024-01-27T12:09:58;3.60;99.90
18043;DHT22;9146;48.074;11.968;2024-01-27T12:12:25;3.60;99.90
18043;DHT22;9146;48.074;11.968;2024-01-27T12:14:53;3.50;99.90
18043;DHT22;9146;48.074;11.968;2024-01-27T12:17:22;3.50;99.90
18043;DHT22;9146;48.074;11.968;2024-01-27T12:19:50;3.50;99.90
18043;DHT22;9146;48.074;11.968;2024-01-27T12:22:23;3.50;99.90
18043;DHT22;9146;48.074;11.968;2024-01-27T12:24:51;3.50;99.90
18043;DHT22;9146;48.074;11.968;2024-01-27T12:27:17;3.60;99.90
18043;DHT22;9146;48.074;11.968;2024-01-27T12:29:45;3.60;99.90
18043;DHT22;9146;48.074;11.968;2024-01-27T12:32:12;3.60;99.90
18043;DHT22;9146;48.074;11.968;2024-01-27T12:34:40;3.70;99.90
18043;DHT22;9146;48.074;11.968;2024-01-27T12:37:08;3.60;99.90
18043;DHT22;9146;48.074;11.968;2024-01-27T12:39:36;3.70;99.90
18043;DHT22;9146;48.074;11.968;2024-01-27T12:42:04;3.80;99.90
18043;DHT22;9146;48.074;11.968;2024-01-27T12:44:31;3.80;99.90
18043;DHT22;9146;48.074;11.968;2024-01-27T12:46:58;3.80;99.90
18043;DHT22;9146;48.074;11.968;2024-01-27T12:49:26;3.80;99.90
18043;DHT22;9146;48.074;11.968;2024-01-27T12:51:53;3.80;99.90
18043;DHT22;9146;48.074;11.968;2024-01-27T12:54:20;3.90;99.90
18043;DHT22;9146;48.074;11.968;2024-01-27T12:56:49;4.00;99.90
18043;DHT22;9146;48.074;11.968;2024-01-27T12:59:15;4.00;99.90
18043;DHT22;9146;48.074;11.968;2024-01-27T13:01:46;4.00;99.90
18043;DHT22;9146;48.074;11.968;2024-01-27T13:04:13;4.00;99.90
18043;DHT22;9146;48.074;11.968;2024-01-27T13:06:40;3.90;99.90
18043;DHT22;9146;48.074;11.968;2024-01-27T13:09:07;4.00;99.90
18043;DHT22;9146;48.074;11.968;2024-01-27T13:11:36;4.10;99.90
18043;DHT22;9146;48.074;11.968;2024-01-27T13:14:05;4.20;99.90
18043;DHT22;9146;48.074;11.968;2024-01-27T13:16:35;4.20;99.90
18043;DHT22;9146;48.074;11.968;2024-01-27T13:19:02;4.20;99.90
18043;DHT22;9146;48.074;11.968;2024-01-27T13:21:29;4.20;99.90
18043;DHT22;9146;48.074;11.968;2024-01-27T13:23:56;4.20;99.90
18043;DHT22;9146;48.074;11.968;2024-01-27T13:26:23;4.20;99.90
18043;DHT22;9146;48.074;11.968;2024-01-27T13:28:50;4.20;99.90
18043;DHT22;9146;48.074;11.968;2024-01-27T13:31:18;4.20;99.90
18043;DHT22;9146;48.074;11.968;2024-01-27T13:33:45;4.20;99.90
18043;DHT22;9146;48.074;11.968;2024-01-27T13:36:12;4.20;99.90
18043;DHT22;9146;48.074;11.968;2024-01-27T13:38:39;4.20;99.90
18043;DHT22;9146;48.074;11.968;2024-01-27T13:41:06;4.10;99.90
18043;DHT22;9146;48.074;11.968;2024-01-27T13:43:33;4.10;99.90
18043;DHT22;9146;48.074;11.968;2024-01-27T13:46:00;4.10;99.90
18043;DHT22;9146;48.074;11.968;2024-01-27T13:48:28;4.20;99.90
18043;DHT22;9146;48.074;11.968;2024-01-27T13:50:56;4.20;99.90
18043;DHT22;9146;48.074;11.968;2024-01-27T13:53:23;4.20;99.90
18043;DHT22;9146;48.074;11.968;2024-01-27T13:55:50;4.30;99.90
18043;DHT22;9146;48.074;11.968;2024-01-27T13:58:17;4.20;99.90
18043;DHT22;9146;48.074;11.968;2024-01-27T14:00:44;4.20;99.90
18043;DHT22;9146;48.074;11.968;2024-01-27T14:03:11;4.20;99.90
18043;DHT22;9146;48.074;11.968;2024-01-27T14:05:40;4.10;99.90
18043;DHT22;9146;48.074;11.968;2024-01-27T14:08:08;4.00;99.90
18043;DHT22;9146;48.074;11.968;2024-01-27T14:10:36;4.00;99.90
18043;DHT22;9146;48.074;11.968;2024-01-27T14:13:04;3.90;99.90
18043;DHT22;9146;48.074;11.968;2024-01-27T14:15:37;3.90;99.90
18043;DHT22;9146;48.074;11.968;2024-01-27T14:18:04;3.90;99.90
18043;DHT22;9146;48.074;11.968;2024-01-27T14:20:32;3.80;99.90
18043;DHT22;9146;48.074;11.968;2024-01-27T14:23:01;3.80;99.90
18043;DHT22;9146;48.074;11.968;2024-01-27T14:25:28;3.80;99.90
18043;DHT22;9146;48.074;11.968;2024-01-27T14:27:55;3.70;99.90
18043;DHT22;9146;48.074;11.968;2024-01-27T14:30:22;3.80;99.90
18043;DHT22;9146;48.074;11.968;2024-01-27T14:32:49;3.70;99.90
18043;DHT22;9146;48.074;11.968;2024-01-27T14:35:17;3.80;99.90
18043;DHT22;9146;48.074;11.968;2024-01-27T14:37:44;3.70;99.90
18043;DHT22;9146;48.074;11.968;2024-01-27T14:40:13;3.70;99.90
18043;DHT22;9146;48.074;11.968;2024-01-27T14:42:40;3.70;99.90
18043;DHT22;9146;48.074;11.968;2024-01-27T14:45:08;3.70;99.90
18043;DHT22;9146;48.074;11.968;2024-01-27T14:47:36;3.70;99.90
18043;DHT22;9146;48.074;11.968;2024-01-27T14:50:03;3.70;99.90
18043;DHT22;9146;48.074;11.968;2024-01-27T14:52:31;3.70;99.90
18043;DHT22;9146;48.074;11.968;2024-01-27T14:54:58;3.70;99.90
18043;DHT22;9146;48.074;11.968;2024-01-27T14:57:27;3.60;99.90
18043;DHT22;9146;48.074;11.968;2024-01-27T14:59:54;3.60;99.90
18043;DHT22;9146;48.074;11.968;2024-01-27T15:02:21;3.60;99.90
18043;DHT22;9146;48.074;11.968;2024-01-27T15:04:48;3.60;99.90
18043;DHT22;9146;48.074;11.968;2024-01-27T15:07:15;3.70;99.90
18043;DHT22;9146;48.074;11.968;2024-01-27T15:09:44;3.70;99.90
18043;DHT22;9146;48.074;11.968;2024-01-27T15:12:11;3.70;99.90
18043;DHT22;9146;48.074;11.968;2024-01-27T15:14:42;3.70;99.90
18043;DHT22;9146;48.074;11.968;2024-01-27T15:17:09;3.60;99.90
18043;DHT22;9146;48.074;11.968;2024-01-27T15:19:36;3.50;99.90
18043;DHT22;9146;48.074;11.968;2024-01-27T15:22:03;3.50;99.90
18043;DHT22;9146;48.074;11.968;2024-01-27T15:24:30;3.40;99.90
18043;DHT22;9146;48.074;11.968;2024-01-27T15:27:00;3.30;99.90
18043;DHT22;9146;48.074;11.968;2024-01-27T15:29:27;3.20;99.90
18043;DHT22;9146;48.074;11.968;2024-01-27T15:31:55;3.10;99.90
18043;DHT22;9146;48.074;11.968;2024-01-27T15:34:23;3.10;99.90
18043;DHT22;9146;48.074;11.968;2024-01-27T15:36:50;3.00;99.90
18043;DHT22;9146;48.074;11.968;2024-01-27T15:39:17;3.00;99.90
18043;DHT22;9146;48.074;11.968;2024-01-27T15:41:44;2.90;99.90